Time;durP1;ratioP1;P1;durP2;ratioP2;P2;SDS_P1;SDS_P2;PMS_P1;PMS_P2;Temp;Humidity;BMP_temperature;BMP_pressure;BME280_temperature;BME280_humidity;BME280_pressure;Samples;Min_cycle;Max_cycle;Signal;HPM_P1;HPM_P2
2023/05/04 00:00:09;;;;;;;4.32;1.77;;;;;;;16.22;50.70;99155.53;4959601;28;20045;-78
2023/05/04 00:02:34;;;;;;;6.05;2.10;;;;;;;16.23;50.87;99159.03;4959528;28;20038;-78
2023/05/04 00:05:00;;;;;;;3.97;1.80;;;;;;;16.19;50.74;99149.72;4959047;28;20133;-78
2023/05/04 00:07:26;;;;;;;4.03;1.88;;;;;;;16.19;50.86;99147.09;4958904;28;20041;-78
2023/05/04 00:09:51;;;;;;;4.40;1.92;;;;;;;16.23;51.05;99157.22;4992570;28;20105;-78
2023/05/04 00:12:17;;;;;;;4.82;2.08;;;;;;;16.23;51.01;99159.03;4992444;28;20398;-79
2023/05/04 00:14:42;;;;;;;5.57;2.00;;;;;;;16.23;50.78;99159.03;4975416;28;20052;-78
2023/05/04 00:17:08;;;;;;;7.05;2.05;;;;;;;16.22;50.83;99155.53;4959057;28;20425;-79
2023/05/04 00:19:34;;;;;;;3.88;1.65;;;;;;;16.24;50.88;99150.97;4943046;28;20034;-78
2023/05/04 00:22:00;;;;;;;5.10;1.80;;;;;;;16.24;50.89;99147.50;4975002;28;20041;-78
2023/05/04 00:24:26;;;;;;;4.15;1.90;;;;;;;16.19;50.78;99140.06;4975260;28;20046;-78
2023/05/04 00:26:51;;;;;;;3.40;1.90;;;;;;;16.23;50.79;99157.22;4975031;28;20030;-78
2023/05/04 00:29:17;;;;;;;3.60;2.15;;;;;;;16.18;50.85;99146.28;5002734;28;20045;-78
2023/05/04 00:31:42;;;;;;;3.90;1.83;;;;;;;16.17;50.85;99157.78;4994571;28;20041;-78
2023/05/04 00:34:07;;;;;;;4.25;1.50;;;;;;;16.18;50.81;99159.44;4994481;28;20488;-78
2023/05/04 00:36:33;;;;;;;4.68;1.80;;;;;;;16.21;50.90;99166.25;4994470;28;20041;-78
2023/05/04 00:38:59;;;;;;;5.25;2.05;;;;;;;16.17;50.83;99151.69;4994515;28;20129;-77
2023/05/04 00:41:24;;;;;;;3.60;2.20;;;;;;;16.17;50.78;99157.78;4994127;28;20397;-78
2023/05/04 00:43:50;;;;;;;4.72;2.10;;;;;;;16.14;50.90;99152.78;4994352;28;20128;-79
2023/05/04 00:46:16;;;;;;;5.40;1.85;;;;;;;16.17;50.93;99159.59;4994292;28;20072;-78
2023/05/04 00:48:41;;;;;;;4.13;1.90;;;;;;;16.16;51.01;99142.97;4993886;28;20077;-78
2023/05/04 00:51:07;;;;;;;4.35;2.10;;;;;;;16.15;50.86;99146.56;4994434;28;20041;-78
2023/05/04 00:53:34;;;;;;;8.70;2.22;;;;;;;16.11;50.89;99147.81;5011046;28;20428;-78
2023/05/04 00:56:00;;;;;;;4.80;2.00;;;;;;;16.13;50.86;99156.41;5011914;28;20038;-78
2023/05/04 00:58:25;;;;;;;4.57;2.13;;;;;;;16.08;50.96;99148.94;5029943;28;20065;-78
2023/05/04 01:00:51;;;;;;;4.93;2.35;;;;;;;16.03;50.86;99137.97;4997640;28;20469;-78
2023/05/04 01:03:17;;;;;;;4.75;2.28;;;;;;;16.05;51.02;99138.69;4997499;28;20435;-78
2023/05/04 01:05:47;;;;;;;5.78;2.10;;;;;;;15.99;50.99;99127.91;4997526;28;20507;-78
2023/05/04 01:08:15;;;;;;;4.15;2.00;;;;;;;16.00;50.84;99133.03;4965186;28;20046;-78
2023/05/04 01:10:49;;;;;;;5.05;2.17;;;;;;;15.95;51.18;99127.34;4981602;28;20030;-78
2023/05/04 01:13:15;;;;;;;5.90;2.40;;;;;;;15.97;50.88;99133.31;4981350;28;20044;-78
2023/05/04 01:15:42;;;;;;;4.97;1.80;;;;;;;15.93;51.04;99126.66;4981443;28;20041;-78
2023/05/04 01:18:07;;;;;;;5.82;2.17;;;;;;;15.90;51.20;99130.41;4997309;28;20042;-78
2023/05/04 01:20:33;;;;;;;5.63;2.30;;;;;;;15.91;51.05;99133.88;4980760;28;20507;-78
2023/05/04 01:22:58;;;;;;;3.45;2.08;;;;;;;15.92;51.05;99132.88;5014652;28;20038;-78
2023/05/04 01:25:26;;;;;;;3.72;2.15;;;;;;;15.91;51.04;99142.59;4981535;28;20046;-78
2023/05/04 01:28:03;;;;;;;4.53;2.05;;;;;;;15.86;50.99;99134.31;4997361;28;20042;-78
2023/05/04 01:30:30;;;;;;;3.40;1.95;;;;;;;15.86;51.23;99128.19;4997215;28;20116;-78
2023/05/04 01:33:00;;;;;;;5.57;2.27;;;;;;;15.82;51.25;99116.28;4980887;28;20096;-78
2023/05/04 01:35:25;;;;;;;4.18;1.83;;;;;;;15.84;51.20;99122.25;4980872;28;20402;-78
2023/05/04 01:37:51;;;;;;;4.72;2.10;;;;;;;15.82;51.36;99121.56;4980875;28;20034;-78
2023/05/04 01:40:16;;;;;;;4.35;2.10;;;;;;;15.80;51.28;99131.41;4996924;28;20050;-78
2023/05/04 01:42:42;;;;;;;5.70;2.42;;;;;;;15.76;51.19;99133.44;4996790;28;20464;-79
2023/05/04 01:45:08;;;;;;;4.95;2.20;;;;;;;15.79;51.53;99135.00;4996750;28;20041;-78
2023/05/04 01:47:33;;;;;;;6.25;2.10;;;;;;;15.78;51.35;99136.81;4980342;28;20085;-78
2023/05/04 01:49:59;;;;;;;7.45;2.50;;;;;;;15.76;51.41;99133.44;4980350;28;20069;-78
2023/05/04 01:52:24;;;;;;;5.57;2.22;;;;;;;15.76;51.48;99143.97;4996623;28;20473;-78
2023/05/04 01:54:50;;;;;;;6.65;2.28;;;;;;;15.71;51.54;99125.13;4996633;28;20038;-78
2023/05/04 01:57:15;;;;;;;6.80;2.40;;;;;;;15.67;51.71;99129.88;5014048;28;20042;-78
2023/05/04 01:59:41;;;;;;;6.53;2.03;;;;;;;15.70;51.52;99134.00;4963814;28;20527;-79
2023/05/04 02:02:06;;;;;;;5.85;2.00;;;;;;;15.68;51.61;99136.75;4980037;28;20048;-78
2023/05/04 02:04:32;;;;;;;5.45;1.92;;;;;;;15.67;51.84;99139.53;4980072;28;20049;-78
2023/05/04 02:06:58;;;;;;;4.75;2.20;;;;;;;15.62;51.76;99134.69;4996504;28;20129;-78
2023/05/04 02:09:23;;;;;;;5.03;2.00;;;;;;;15.64;51.90;99145.94;4979556;28;20085;-78
2023/05/04 02:11:49;;;;;;;5.93;2.25;;;;;;;15.64;51.86;99143.28;4996351;28;20034;-78
2023/05/04 02:14:14;;;;;;;4.45;2.17;;;;;;;15.65;51.89;99141.47;4979634;28;20078;-78
2023/05/04 02:16:40;;;;;;;4.22;2.10;;;;;;;15.65;51.88;99147.56;4996186;28;20072;-78
2023/05/04 02:19:05;;;;;;;8.32;2.22;;;;;;;15.63;51.98;99148.69;5013649;28;20053;-77
2023/05/04 02:21:31;;;;;;;5.18;2.20;;;;;;;15.64;51.89;99153.81;4980062;28;20495;-78
2023/05/04 02:23:58;;;;;;;5.75;2.15;;;;;;;15.62;52.06;99145.22;4963833;28;20069;-78
2023/05/04 02:26:23;;;;;;;4.68;2.10;;;;;;;15.64;51.88;99159.09;5013537;28;20064;-78
2023/05/04 02:28:49;;;;;;;5.50;2.22;;;;;;;15.64;51.88;99159.09;4978944;28;20041;-78
2023/05/04 02:31:14;;;;;;;3.63;2.10;;;;;;;15.65;52.01;99171.25;4996069;28;20034;-78
2023/05/04 02:33:40;;;;;;;8.60;2.20;;;;;;;15.64;52.07;99160.88;5013472;28;20608;-78
2023/05/04 02:36:06;;;;;;;5.00;1.90;;;;;;;15.58;52.15;99146.47;4979573;28;20100;-78
2023/05/04 02:38:31;;;;;;;6.68;2.55;;;;;;;15.63;51.68;99162.69;4996001;28;20041;-78
2023/05/04 02:40:57;;;;;;;3.40;1.85;;;;;;;15.64;52.03;99153.81;4979354;28;20512;-78
2023/05/04 02:43:23;;;;;;;5.10;2.28;;;;;;;15.64;51.99;99161.72;4995941;28;20073;-78
2023/05/04 02:45:48;;;;;;;6.55;2.20;;;;;;;15.58;52.08;99157.00;4995804;28;20038;-78
2023/05/04 02:48:13;;;;;;;7.38;2.80;;;;;;;15.60;52.18;99165.59;4995643;28;20060;-78
2023/05/04 02:50:39;;;;;;;5.28;2.50;;;;;;;15.59;52.17;99153.38;4995153;28;20153;-78
2023/05/04 02:53:05;;;;;;;6.88;2.10;;;;;;;15.60;52.41;99165.59;4962994;28;20421;-78
2023/05/04 02:55:30;;;;;;;4.40;2.22;;;;;;;15.58;52.37;99158.81;5012940;28;20030;-79
2023/05/04 02:57:56;;;;;;;6.55;2.22;;;;;;;15.55;52.53;99159.91;5012698;28;20508;-78
2023/05/04 03:00:21;;;;;;;5.55;2.30;;;;;;;15.52;52.50;99139.97;4979422;28;20053;-78
2023/05/04 03:02:47;;;;;;;7.18;2.50;;;;;;;15.47;52.60;99128.22;5012828;28;20046;-78
2023/05/04 03:05:12;;;;;;;6.15;2.00;;;;;;;15.43;52.52;99127.63;4978768;28;20050;-78
2023/05/04 03:07:38;;;;;;;6.22;2.10;;;;;;;15.42;52.61;99139.16;4995254;28;20070;-78
2023/05/04 03:10:04;;;;;;;5.38;2.40;;;;;;;15.42;52.64;99141.78;4995385;28;20073;-78
2023/05/04 03:12:29;;;;;;;5.22;2.03;;;;;;;15.41;52.79;99139.28;4995393;28;20045;-79
2023/05/04 03:14:55;;;;;;;5.63;2.63;;;;;;;15.38;52.66;99154.34;5012557;28;20046;-78
2023/05/04 03:17:20;;;;;;;5.50;2.30;;;;;;;15.37;52.88;99154.53;5012404;28;20042;-78
2023/05/04 03:19:46;;;;;;;4.10;2.00;;;;;;;15.34;52.88;99158.25;5012111;28;20033;-78
2023/05/04 03:22:11;;;;;;;5.80;2.10;;;;;;;15.34;52.96;99165.31;4978145;28;20461;-78
2023/05/04 03:24:38;;;;;;;5.00;2.42;;;;;;;15.37;53.02;99165.88;4994950;28;20050;-78
2023/05/04 03:27:04;;;;;;;4.55;2.20;;;;;;;15.38;52.87;99171.94;4994406;28;20044;-78
2023/05/04 03:29:29;;;;;;;6.43;2.42;;;;;;;15.37;52.93;99165.88;4994535;28;20153;-79
2023/05/04 03:31:55;;;;;;;6.75;2.75;;;;;;;15.42;53.00;99172.50;4994831;28;20029;-79
2023/05/04 03:34:21;;;;;;;8.15;2.30;;;;;;;15.38;53.03;99180.66;4994179;28;20042;-82
2023/05/04 03:36:47;;;;;;;6.55;2.47;;;;;;;15.39;52.98;99181.50;5012281;28;20077;-87
2023/05/04 03:39:15;;;;;;;6.47;2.35;;;;;;;15.43;52.81;99176.78;5012093;28;20480;-86
2023/05/04 03:41:40;;;;;;;7.30;2.30;;;;;;;15.42;52.99;99172.50;4995249;28;20029;-88
2023/05/04 03:44:06;;;;;;;5.43;2.28;;;;;;;15.43;52.97;99175.00;4994739;28;20412;-92
2023/05/04 03:46:31;;;;;;;5.85;2.40;;;;;;;15.46;52.71;99187.03;4994487;28;20121;-77
2023/05/04 03:48:57;;;;;;;6.43;2.05;;;;;;;15.43;52.98;99184.69;5012134;28;20072;-79
2023/05/04 03:51:22;;;;;;;6.00;2.53;;;;;;;15.48;52.77;99185.09;4978179;28;20416;-76
2023/05/04 03:53:48;;;;;;;8.15;2.40;;;;;;;15.51;52.62;99171.66;4978508;28;20401;-77
2023/05/04 03:56:13;;;;;;;7.70;2.33;;;;;;;15.53;52.61;99177.66;5012377;28;20046;-76
2023/05/04 03:58:39;;;;;;;5.65;2.28;;;;;;;15.53;52.60;99175.84;4994389;28;20616;-77
2023/05/04 04:01:05;;;;;;;6.55;2.22;;;;;;;15.57;52.36;99179.00;5012203;28;20037;-82
2023/05/04 04:03:31;;;;;;;3.80;1.90;;;;;;;15.58;52.70;99187.75;4995457;28;20046;-84
2023/05/04 04:05:57;;;;;;;8.10;2.20;;;;;;;15.69;59.20;99182.34;4995441;28;20050;-83
2023/05/04 04:08:23;;;;;;;17.17;2.33;;;;;;;15.67;56.04;99179.88;5011959;28;20092;-84
2023/05/04 04:10:48;;;;;;;6.70;2.33;;;;;;;15.69;55.78;99193.69;4994410;28;20485;-82
2023/05/04 04:13:14;;;;;;;10.80;2.40;;;;;;;15.68;55.43;99189.41;4992734;28;20415;-81
2023/05/04 04:15:39;;;;;;;7.57;2.40;;;;;;;15.70;54.98;99190.13;5011787;28;20069;-82
2023/05/04 04:18:05;;;;;;;4.57;2.10;;;;;;;15.68;54.53;99194.66;4978355;28;20354;-82
2023/05/04 04:20:31;;;;;;;11.05;2.38;;;;;;;15.66;54.39;99186.09;4962143;28;20467;-82
2023/05/04 04:22:57;;;;;;;4.50;2.30;;;;;;;15.70;54.35;99197.16;4961541;28;20038;-81
2023/05/04 04:25:23;;;;;;;8.05;2.45;;;;;;;15.69;53.98;99206.88;5011860;28;20046;-82
2023/05/04 04:27:48;;;;;;;6.07;2.60;;;;;;;15.67;53.92;99198.28;5011896;28;20026;-81
2023/05/04 04:30:14;;;;;;;5.63;2.63;;;;;;;15.72;53.90;99200.50;4980604;28;20034;-81
2023/05/04 04:32:40;;;;;;;7.05;2.95;;;;;;;15.73;53.46;99196.88;4997719;28;20037;-85
2023/05/04 04:35:06;;;;;;;6.57;2.97;;;;;;;15.75;53.44;99200.22;5016938;28;20390;-80
2023/05/04 04:37:31;;;;;;;6.10;2.92;;;;;;;15.68;53.25;99184.13;5015281;28;20038;-81
2023/05/04 04:39:57;;;;;;;5.03;2.53;;;;;;;15.79;53.08;99203.44;5015859;28;20417;-81
2023/05/04 04:42:22;;;;;;;8.43;2.83;;;;;;;15.81;52.86;99204.94;4980970;28;20037;-82
2023/05/04 04:44:48;;;;;;;5.50;2.88;;;;;;;15.81;52.80;99206.75;4981370;28;20053;-78
2023/05/04 04:47:15;;;;;;;8.30;2.90;;;;;;;15.85;52.93;99216.03;4964742;28;20033;-80
2023/05/04 04:49:41;;;;;;;4.13;2.40;;;;;;;15.86;52.98;99215.91;5015160;28;20478;-78
2023/05/04 04:52:06;;;;;;;9.40;2.53;;;;;;;15.90;52.91;99219.91;4981330;28;20096;-79
2023/05/04 04:54:32;;;;;;;7.22;2.75;;;;;;;15.91;52.73;99216.31;4997398;28;20030;-78
2023/05/04 04:56:58;;;;;;;7.53;2.95;;;;;;;15.90;52.66;99217.28;5014987;28;20042;-78
2023/05/04 04:59:24;;;;;;;6.55;2.63;;;;;;;15.90;52.69;99214.63;5015160;28;20519;-78
2023/05/04 05:01:49;;;;;;;10.48;2.60;;;;;;;16.30;62.10;99217.22;4982934;28;20129;-84
2023/05/04 05:04:21;;;;;;;7.53;2.25;;;;;;;16.46;60.55;99213.03;4966448;28;20045;-83
2023/05/04 05:06:46;;;;;;;13.27;2.50;;;;;;;16.45;58.76;99208.72;5020104;28;20033;-80
2023/05/04 05:09:12;;;;;;;6.65;1.95;;;;;;;16.51;60.04;99209.13;4966866;28;20097;-82
2023/05/04 05:11:37;;;;;;;4.65;2.17;;;;;;;16.52;58.36;99213.44;5016836;28;20034;-86
2023/05/04 05:14:03;;;;;;;6.55;2.65;;;;;;;16.48;57.43;99212.03;4983411;28;20049;-81
2023/05/04 05:16:28;;;;;;;9.55;2.40;;;;;;;16.48;56.79;99206.78;5015998;28;20040;-83
2023/05/04 05:18:54;;;;;;;6.25;2.20;;;;;;;16.49;56.09;99201.34;4983212;28;20378;-82
2023/05/04 05:21:19;;;;;;;5.32;2.42;;;;;;;16.48;55.51;99196.22;4982411;28;20404;-82
2023/05/04 05:23:45;;;;;;;5.50;2.22;;;;;;;16.64;59.36;99185.94;5017508;28;20053;-82
2023/05/04 05:26:10;;;;;;;11.50;2.17;;;;;;;16.81;58.34;99174.59;4967324;28;20489;-82
2023/05/04 05:28:36;;;;;;;14.15;2.40;;;;;;;16.94;56.70;99186.66;4968267;28;20045;-85
2023/05/04 05:31:01;;;;;;;5.18;2.25;;;;;;;16.95;55.72;99189.16;5000109;28;20038;-89
2023/05/04 05:33:27;;;;;;;5.50;2.40;;;;;;;16.96;54.58;99193.44;4983887;28;20136;-83
2023/05/04 05:35:52;;;;;;;5.40;2.05;;;;;;;16.96;54.09;99189.97;4983278;28;20038;-85
2023/05/04 05:38:18;;;;;;;8.18;2.78;;;;;;;16.95;53.31;99191.78;4988119;28;20052;-78
2023/05/04 05:40:44;;;;;;;11.93;2.30;;;;;;;17.31;58.31;99188.38;4967509;28;20539;-81
2023/05/04 05:43:09;;;;;;;7.85;1.80;;;;;;;17.45;57.95;99185.22;4984659;28;20046;-86
2023/05/04 05:45:35;;;;;;;12.55;2.25;;;;;;;17.65;57.87;99201.75;4987193;28;20041;-84
2023/05/04 05:48:00;;;;;;;13.55;2.72;;;;;;;17.82;57.25;99197.44;4969148;28;20065;-81
2023/05/04 05:50:26;;;;;;;12.10;2.67;;;;;;;18.12;56.94;99197.19;4966075;28;20065;-78
2023/05/04 05:52:51;;;;;;;15.95;2.42;;;;;;;18.52;55.81;99206.38;4997915;28;20042;-77
2023/05/04 05:55:17;;;;;;;7.82;2.17;;;;;;;18.71;53.88;99203.50;5018206;28;20104;-84
2023/05/04 05:57:43;;;;;;;6.32;2.40;;;;;;;18.60;51.95;99204.59;5001852;28;20038;-87
2023/05/04 06:00:12;;;;;;;8.38;2.20;;;;;;;18.44;51.42;99201.88;4983274;28;20121;-84
2023/05/04 06:02:38;;;;;;;7.30;2.67;;;;;;;18.32;50.82;99201.28;4985624;28;20057;-79
2023/05/04 06:05:04;;;;;;;11.15;2.85;;;;;;;18.21;50.44;99214.75;4985686;28;20049;-82
2023/05/04 06:07:34;;;;;;;5.68;2.47;;;;;;;18.08;50.32;99215.16;4999741;28;20065;-82
2023/05/04 06:10:00;;;;;;;5.28;2.20;;;;;;;18.00;50.49;99221.22;4984087;28;20046;-83
2023/05/04 06:12:30;;;;;;;5.15;1.80;;;;;;;17.85;50.04;99212.13;4985714;28;20038;-82
2023/05/04 06:15:01;;;;;;;8.65;2.30;;;;;;;17.78;50.11;99224.28;4970572;28;20046;-79
2023/05/04 06:17:27;;;;;;;5.95;2.28;;;;;;;17.68;49.98;99225.19;4999905;28;20180;-85
2023/05/04 06:20:07;;;;;;;10.60;2.43;;;;;;;17.62;50.21;99233.72;4999905;28;20038;-85
2023/05/04 06:22:34;;;;;;;8.90;2.40;;;;;;;17.76;56.28;99229.72;5004648;28;20073;-85
2023/05/04 06:25:00;;;;;;;7.63;2.35;;;;;;;17.97;55.16;99240.00;5020744;28;20045;-86
2023/05/04 06:27:27;;;;;;;9.85;2.40;;;;;;;17.94;53.79;99234.19;4967926;28;20513;-80
2023/05/04 06:29:53;;;;;;;7.35;2.50;;;;;;;17.92;55.03;99238.78;4988357;28;20041;-86
2023/05/04 06:32:21;;;;;;;8.15;2.53;;;;;;;17.90;53.70;99233.69;5002586;28;20038;-81
2023/05/04 06:34:46;;;;;;;6.60;2.17;;;;;;;17.80;52.94;99228.44;4969480;28;20563;-79
2023/05/04 06:37:18;;;;;;;6.03;2.17;;;;;;;17.75;52.37;99228.06;4984195;28;20073;-87
2023/05/04 06:39:44;;;;;;;12.13;2.40;;;;;;;17.66;52.12;99235.09;5024259;28;20104;-87
2023/05/04 06:42:11;;;;;;;11.73;2.42;;;;;;;17.56;53.90;99231.66;5002242;28;20030;-81
2023/05/04 06:44:37;;;;;;;7.75;2.90;;;;;;;17.49;52.79;99230.59;4997074;28;20038;-82
2023/05/04 06:47:02;;;;;;;10.85;2.53;;;;;;;17.46;52.49;99242.31;4998757;28;20036;-84
2023/05/04 06:49:31;;;;;;;6.45;2.40;;;;;;;17.45;52.40;99247.72;4966690;28;20050;-83
2023/05/04 06:51:59;;;;;;;7.93;2.45;;;;;;;17.44;52.13;99231.06;4981347;28;20053;-84
2023/05/04 06:54:28;;;;;;;7.03;2.33;;;;;;;17.42;52.03;99237.47;5013313;28;20468;-81
2023/05/04 06:56:55;;;;;;;8.38;2.38;;;;;;;17.35;51.85;99240.69;4996518;28;20120;-80
2023/05/04 06:59:21;;;;;;;6.30;2.15;;;;;;;17.27;51.59;99223.97;4996067;28;20085;-80
2023/05/04 07:01:47;;;;;;;12.25;2.42;;;;;;;17.36;53.88;99236.25;4967006;28;20052;-83
2023/05/04 07:04:20;;;;;;;7.15;2.25;;;;;;;17.27;53.31;99223.97;4979691;28;20058;-82
2023/05/04 07:06:46;;;;;;;7.25;2.38;;;;;;;17.31;52.96;99236.69;4965701;28;20068;-79
2023/05/04 07:09:19;;;;;;;5.15;2.03;;;;;;;17.22;52.78;99220.91;4996916;28;20042;-79
2023/05/04 07:11:45;;;;;;;8.20;2.67;;;;;;;17.25;52.61;99233.81;4997000;28;20030;-80
2023/05/04 07:14:10;;;;;;;6.03;2.38;;;;;;;17.23;52.53;99233.13;4979915;28;20408;-82
2023/05/04 07:16:36;;;;;;;5.53;2.53;;;;;;;17.17;52.52;99230.13;4963330;28;20560;-80
2023/05/04 07:19:03;;;;;;;6.30;2.30;;;;;;;17.21;52.40;99225.38;4963166;28;20096;-80
2023/05/04 07:21:28;;;;;;;4.50;1.88;;;;;;;17.22;52.32;99213.84;4980070;28;20512;-81
2023/05/04 07:23:54;;;;;;;5.22;2.17;;;;;;;17.33;52.04;99223.34;4995743;28;20077;-80
2023/05/04 07:26:21;;;;;;;6.32;2.20;;;;;;;17.40;52.18;99219.16;4980378;28;20062;-79
2023/05/04 07:28:46;;;;;;;6.13;2.88;;;;;;;17.45;52.01;99221.34;4979772;28;20044;-80
2023/05/04 07:31:13;;;;;;;7.15;2.53;;;;;;;17.50;51.96;99219.06;4963132;28;20029;-80
2023/05/04 07:33:39;;;;;;;6.38;2.38;;;;;;;17.56;51.66;99221.13;4963642;28;20042;-79
2023/05/04 07:36:05;;;;;;;5.55;2.45;;;;;;;17.59;51.80;99217.34;4979234;28;20065;-79
2023/05/04 07:38:31;;;;;;;3.95;2.08;;;;;;;17.68;51.54;99221.75;4980079;28;20040;-79
2023/05/04 07:40:56;;;;;;;4.45;2.30;;;;;;;17.69;51.33;99220.75;4995165;28;20038;-82
2023/05/04 07:43:22;;;;;;;5.10;2.40;;;;;;;17.78;51.11;99217.19;4979558;28;20416;-79
2023/05/04 07:45:48;;;;;;;6.82;2.47;;;;;;;17.83;50.88;99225.47;4963810;28;20046;-79
2023/05/04 07:48:13;;;;;;;5.95;2.60;;;;;;;17.89;50.67;99217.00;4979361;28;20041;-79
2023/05/04 07:50:39;;;;;;;5.32;2.58;;;;;;;17.94;50.58;99219.19;4979709;28;20034;-80
2023/05/04 07:53:04;;;;;;;5.82;2.42;;;;;;;17.95;50.34;99206.78;4963187;28;20074;-78
2023/05/04 07:55:30;;;;;;;7.63;2.63;;;;;;;18.04;50.20;99212.00;4995678;28;20044;-79
2023/05/04 07:57:55;;;;;;;7.57;2.40;;;;;;;18.15;50.11;99213.53;4962831;28;20484;-79
2023/05/04 08:00:21;;;;;;;4.13;2.15;;;;;;;18.27;49.65;99206.22;4995278;28;20041;-80
2023/05/04 08:02:47;;;;;;;4.43;2.58;;;;;;;18.46;49.49;99205.16;4979535;28;20073;-79
2023/05/04 08:05:12;;;;;;;9.68;2.47;;;;;;;18.64;48.96;99220.97;4981357;28;20402;-78
2023/05/04 08:07:38;;;;;;;5.90;2.63;;;;;;;18.71;48.83;99221.19;4999321;28;20038;-79
2023/05/04 08:10:04;;;;;;;6.32;2.33;;;;;;;18.76;48.65;99214.41;4983664;28;20038;-79
2023/05/04 08:12:29;;;;;;;5.03;2.50;;;;;;;18.79;48.59;99221.22;4966215;28;20492;-79
2023/05/04 08:14:55;;;;;;;4.68;2.28;;;;;;;18.79;48.38;99210.63;4966562;28;20567;-79
2023/05/04 08:17:20;;;;;;;5.38;2.30;;;;;;;18.92;48.30;99215.50;4999119;28;20037;-79
2023/05/04 08:19:46;;;;;;;8.32;2.63;;;;;;;18.94;48.04;99211.72;4966833;28;20038;-81
2023/05/04 08:22:11;;;;;;;5.60;2.30;;;;;;;19.10;47.71;99218.91;4966786;28;20481;-78
2023/05/04 08:24:37;;;;;;;5.90;2.33;;;;;;;19.27;47.29;99211.00;4999540;28;20067;-79
2023/05/04 08:27:02;;;;;;;4.75;2.28;;;;;;;19.36;47.24;99210.03;4965787;28;20033;-79
2023/05/04 08:29:30;;;;;;;4.75;2.25;;;;;;;19.46;46.96;99213.34;4966398;28;20042;-79
2023/05/04 08:31:56;;;;;;;5.93;2.60;;;;;;;19.51;47.01;99205.78;4999462;28;20551;-78
2023/05/04 08:34:22;;;;;;;6.53;2.55;;;;;;;19.61;46.82;99208.25;4966655;28;20133;-79
2023/05/04 08:36:47;;;;;;;5.43;2.28;;;;;;;19.63;46.77;99210.75;4999054;28;20479;-80
2023/05/04 08:39:13;;;;;;;4.82;2.50;;;;;;;19.73;46.61;99210.59;5016841;28;20042;-79
2023/05/04 08:41:42;;;;;;;7.10;2.25;;;;;;;20.01;46.18;99214.59;4982349;28;20038;-79
2023/05/04 08:44:10;;;;;;;3.47;2.22;;;;;;;20.10;45.83;99198.69;4983638;28;20046;-84
2023/05/04 08:46:39;;;;;;;6.45;2.35;;;;;;;20.17;45.69;99207.63;4966303;28;20101;-79
2023/05/04 08:49:06;;;;;;;5.93;2.70;;;;;;;20.19;45.76;99205.63;4965931;28;20038;-79
2023/05/04 08:51:34;;;;;;;4.03;2.35;;;;;;;20.26;45.59;99214.56;4965492;28;20104;-80
2023/05/04 08:54:00;;;;;;;5.45;2.83;;;;;;;20.37;45.28;99202.81;4982846;28;20241;-78
2023/05/04 08:56:25;;;;;;;6.13;2.60;;;;;;;20.47;45.04;99192.00;4966359;28;20559;-78
2023/05/04 08:58:51;;;;;;;5.13;2.55;;;;;;;20.57;44.89;99189.97;4982100;28;20078;-83
2023/05/04 09:01:17;;;;;;;6.13;2.67;;;;;;;20.59;45.04;99193.31;4998465;28;20054;-81
2023/05/04 09:03:43;;;;;;;4.35;2.47;;;;;;;20.54;45.28;99207.06;4966218;28;20204;-80
2023/05/04 09:06:09;;;;;;;6.78;2.58;;;;;;;20.51;45.34;99191.50;4966178;28;20404;-78
2023/05/04 09:08:35;;;;;;;3.63;2.40;;;;;;;20.54;45.17;99198.25;4964514;28;20042;-78
2023/05/04 09:11:00;;;;;;;10.48;3.10;;;;;;;20.51;44.99;99191.50;4965979;28;20096;-80
2023/05/04 09:13:26;;;;;;;4.88;2.58;;;;;;;20.43;45.11;99192.34;4966113;28;20037;-77
2023/05/04 09:15:55;;;;;;;7.22;3.08;;;;;;;20.42;45.44;99203.13;4997330;28;20045;-81
2023/05/04 09:18:21;;;;;;;6.32;2.70;;;;;;;20.45;45.14;99188.66;4997885;28;20042;-77
2023/05/04 09:20:47;;;;;;;8.35;3.00;;;;;;;20.46;45.19;99193.00;4982782;28;20097;-79
2023/05/04 09:23:13;;;;;;;6.40;2.80;;;;;;;20.42;45.30;99192.50;4997432;28;20037;-79
2023/05/04 09:25:51;;;;;;;7.20;3.00;;;;;;;20.40;45.33;99197.97;4981487;28;20042;-79
2023/05/04 09:28:17;;;;;;;10.35;3.30;;;;;;;20.42;45.39;99198.63;4998362;28;20064;-80
2023/05/04 09:30:43;;;;;;;7.68;2.95;;;;;;;20.39;45.26;99183.06;4980634;28;20040;-77
2023/05/04 09:33:09;;;;;;;6.00;3.00;;;;;;;20.52;45.37;99189.66;4981306;28;20108;-79
2023/05/04 09:35:39;;;;;;;7.85;2.88;;;;;;;20.56;45.12;99190.97;4981280;28;20034;-80
2023/05/04 09:38:06;;;;;;;7.40;3.17;;;;;;;20.62;44.92;99185.00;4981233;28;20038;-79
2023/05/04 09:40:34;;;;;;;6.57;3.40;;;;;;;20.58;45.08;99176.53;4981244;28;20038;-80
2023/05/04 09:43:00;;;;;;;8.80;3.47;;;;;;;20.57;45.30;99176.72;4981997;28;20042;-82
2023/05/04 09:45:27;;;;;;;6.07;2.90;;;;;;;20.57;45.15;99174.91;4982442;28;20065;-80
2023/05/04 09:47:54;;;;;;;6.82;3.00;;;;;;;20.57;45.16;99166.94;4982606;28;20493;-79
2023/05/04 09:50:25;;;;;;;9.77;3.20;;;;;;;20.55;45.26;99173.41;4965571;28;20041;-81
2023/05/04 09:52:51;;;;;;;4.50;2.58;;;;;;;20.57;45.09;99174.06;4982504;28;20046;-80
2023/05/04 09:55:18;;;;;;;10.15;3.40;;;;;;;20.57;45.37;99160.78;4965376;28;20065;-78
2023/05/04 09:57:44;;;;;;;4.85;2.80;;;;;;;20.57;45.36;99161.66;4998035;28;20101;-78
2023/05/04 10:00:11;;;;;;;8.05;3.45;;;;;;;20.63;45.34;99160.13;4981018;28;20038;-81
2023/05/04 10:02:38;;;;;;;5.63;3.13;;;;;;;20.73;45.05;99147.53;4964755;28;20057;-78
2023/05/04 10:05:08;;;;;;;6.53;2.83;;;;;;;20.86;44.89;99151.41;4964433;28;20046;-79
2023/05/04 10:07:33;;;;;;;6.53;3.60;;;;;;;20.88;45.04;99155.56;4965662;28;20034;-80
2023/05/04 10:09:59;;;;;;;6.95;3.03;;;;;;;20.90;44.97;99150.09;4981087;28;20041;-79
2023/05/04 10:12:25;;;;;;;5.43;2.70;;;;;;;20.93;45.43;99142.59;4980599;28;20050;-79
2023/05/04 10:14:50;;;;;;;5.80;3.17;;;;;;;20.89;45.29;99141.31;4964351;28;20041;-80
2023/05/04 10:17:30;;;;;;;6.28;3.20;;;;;;;20.88;45.43;99144.94;4964790;28;20128;-79
2023/05/04 10:20:08;;;;;;;5.93;3.33;;;;;;;20.83;45.36;99146.50;4998472;28;20455;-78
2023/05/04 10:22:51;;;;;;;10.82;3.40;;;;;;;20.78;45.58;99145.16;4997134;28;20093;-79
2023/05/04 10:25:38;;;;;;;6.07;3.10;;;;;;;20.84;45.58;99142.81;4980484;28;20038;-79
2023/05/04 10:28:30;;;;;;;5.67;3.00;;;;;;;20.88;45.70;99134.34;5013834;28;20133;-79
2023/05/04 10:30:58;;;;;;;8.00;3.85;;;;;;;20.97;45.46;99135.13;4983654;28;20035;-80
2023/05/04 10:33:43;;;;;;;5.32;3.08;;;;;;;20.99;45.43;99127.81;4964553;28;20431;-78
2023/05/04 10:36:09;;;;;;;6.63;3.40;;;;;;;21.10;45.13;99118.63;4965339;28;20037;-78
2023/05/04 10:38:35;;;;;;;9.02;3.45;;;;;;;21.23;44.97;99121.50;4963876;28;20129;-78
2023/05/04 10:41:11;;;;;;;11.80;3.75;;;;;;;21.37;44.76;99129.75;4963667;28;20472;-78
2023/05/04 10:43:37;;;;;;;7.45;3.42;;;;;;;21.53;44.68;99134.13;4979802;28;20476;-81
2023/05/04 10:46:02;;;;;;;10.00;3.53;;;;;;;21.74;44.18;99122.81;4996526;28;20042;-79
2023/05/04 10:48:34;;;;;;;7.43;3.60;;;;;;;21.93;43.57;99114.31;4963741;28;20141;-79
2023/05/04 10:51:00;;;;;;;8.30;3.58;;;;;;;22.11;43.56;99108.69;4980599;28;20069;-80
2023/05/04 10:53:31;;;;;;;7.35;3.80;;;;;;;22.17;43.20;99107.94;5013835;28;20069;-79
2023/05/04 10:55:57;;;;;;;8.40;3.47;;;;;;;22.16;43.39;99102.81;4980286;28;20033;-79
2023/05/04 10:58:27;;;;;;;6.80;3.30;;;;;;;22.19;43.01;99103.25;4979659;28;20416;-79
2023/05/04 11:00:52;;;;;;;7.80;3.90;;;;;;;22.21;43.21;99103.91;4995788;28;20038;-78
2023/05/04 11:03:20;;;;;;;6.28;3.33;;;;;;;22.32;42.94;99099.97;4963466;28;20076;-76
2023/05/04 11:05:49;;;;;;;8.13;3.50;;;;;;;22.44;43.00;99099.50;4979759;28;20081;-80
2023/05/04 11:08:18;;;;;;;7.20;3.85;;;;;;;22.50;42.77;99098.78;4980685;28;20052;-78
2023/05/04 11:10:46;;;;;;;11.27;3.78;;;;;;;22.62;42.69;99107.13;4996059;28;20044;-81
2023/05/04 11:13:11;;;;;;;7.22;3.65;;;;;;;22.62;42.48;99101.81;4979659;28;20412;-79
2023/05/04 11:15:50;;;;;;;6.35;3.42;;;;;;;22.61;42.50;99110.78;4963202;28;20041;-80
2023/05/04 11:18:27;;;;;;;8.65;3.80;;;;;;;22.59;42.63;99100.34;4980158;28;20045;-79
2023/05/04 11:20:56;;;;;;;10.90;3.47;;;;;;;22.68;42.64;99093.91;4979382;28;20045;-78
2023/05/04 11:23:22;;;;;;;9.20;3.72;;;;;;;22.61;42.71;99089.50;4979276;28;20038;-80
2023/05/04 11:25:47;;;;;;;6.10;3.63;;;;;;;22.58;42.71;99099.50;4962989;28;20038;-78
2023/05/04 11:28:13;;;;;;;6.88;4.13;;;;;;;22.46;43.05;99092.19;4963028;28;20456;-78